createdAt,value
2017-09-21T00:00:02.649Z,0.00
2017-09-21T00:01:03.087Z,0.00
2017-09-21T00:02:03.513Z,0.00
2017-09-21T00:03:03.941Z,0.00
2017-09-21T00:04:04.419Z,0.00
2017-09-21T00:05:04.804Z,0.00
2017-09-21T00:06:05.244Z,0.00
2017-09-21T00:07:05.672Z,0.00
2017-09-21T00:08:06.120Z,0.00
2017-09-21T00:09:06.535Z,0.00
2017-09-21T00:10:06.979Z,0.00
2017-09-21T00:11:07.414Z,0.00
2017-09-21T00:12:07.827Z,0.00
2017-09-21T00:13:08.265Z,0.00
2017-09-21T00:14:08.693Z,0.00
2017-09-21T00:15:09.126Z,0.00
2017-09-21T00:16:09.556Z,0.00
2017-09-21T00:17:09.992Z,0.00
2017-09-21T00:18:10.423Z,0.00
2017-09-21T00:19:10.855Z,0.00
2017-09-21T00:20:11.287Z,0.00
2017-09-21T00:21:11.718Z,0.00
2017-09-21T00:22:12.144Z,0.00
2017-09-21T00:23:12.578Z,0.00
2017-09-21T00:24:13.010Z,0.00
2017-09-21T00:25:13.439Z,0.00
2017-09-21T00:26:13.873Z,0.00
2017-09-21T00:27:14.308Z,0.00
2017-09-21T00:28:14.739Z,0.00
2017-09-21T00:29:15.165Z,0.00
2017-09-21T00:30:15.613Z,0.00
2017-09-21T00:31:16.032Z,0.00
2017-09-21T00:32:16.459Z,0.00
2017-09-21T00:33:16.895Z,0.00
2017-09-21T00:34:17.323Z,0.00
2017-09-21T00:35:17.754Z,0.00
2017-09-21T00:36:18.187Z,0.00
2017-09-21T00:37:18.626Z,0.00
2017-09-21T00:38:19.052Z,0.00
2017-09-21T00:39:19.491Z,0.00
2017-09-21T00:40:19.918Z,0.00
2017-09-21T00:41:20.339Z,0.00
2017-09-21T00:42:20.775Z,0.00
2017-09-21T00:43:21.203Z,0.00
2017-09-21T00:44:21.643Z,0.00
2017-09-21T00:45:22.065Z,0.00
2017-09-21T00:46:22.506Z,0.00
2017-09-21T00:47:22.930Z,0.00
2017-09-21T00:48:23.362Z,0.00
2017-09-21T00:49:23.793Z,0.00
2017-09-21T00:50:24.222Z,0.00
2017-09-21T00:51:24.659Z,0.00
2017-09-21T00:52:25.087Z,0.00
2017-09-21T00:53:25.529Z,0.00
2017-09-21T00:54:25.953Z,0.00
2017-09-21T00:55:26.392Z,0.00
2017-09-21T00:56:26.811Z,0.00
2017-09-21T00:57:27.240Z,0.00
2017-09-21T00:58:27.677Z,0.00
2017-09-21T00:59:28.102Z,0.00
2017-09-21T01:00:28.538Z,0.00
2017-09-21T01:01:28.965Z,0.00
2017-09-21T01:02:29.401Z,0.00
2017-09-21T01:03:29.828Z,0.00
2017-09-21T01:04:30.257Z,0.00
2017-09-21T01:05:30.688Z,0.00
2017-09-21T01:06:31.121Z,0.00
2017-09-21T01:07:31.553Z,0.00
2017-09-21T01:08:31.984Z,0.00
2017-09-21T01:09:32.414Z,0.00
2017-09-21T01:10:32.850Z,0.00
2017-09-21T01:11:33.280Z,0.00
2017-09-21T01:12:33.705Z,0.00
2017-09-21T01:13:34.137Z,0.00
2017-09-21T01:14:34.573Z,0.00
2017-09-21T01:15:35.003Z,0.00
2017-09-21T01:16:35.430Z,0.00
2017-09-21T01:17:35.862Z,0.00
2017-09-21T01:18:36.300Z,0.00
2017-09-21T01:19:36.721Z,0.00
2017-09-21T01:20:37.156Z,0.00
2017-09-21T01:21:37.593Z,0.00
2017-09-21T01:22:38.018Z,0.00
2017-09-21T01:23:38.451Z,0.00
2017-09-21T01:24:38.878Z,0.00
2017-09-21T01:25:39.316Z,0.00
2017-09-21T01:26:39.741Z,0.00
2017-09-21T01:27:40.171Z,0.00
2017-09-21T01:28:40.612Z,0.00
2017-09-21T01:29:41.040Z,0.00
2017-09-21T01:30:41.463Z,0.00
2017-09-21T01:31:41.898Z,0.00
2017-09-21T01:32:42.329Z,0.00
2017-09-21T01:33:42.771Z,0.00
2017-09-21T01:34:43.188Z,0.00
2017-09-21T01:35:43.633Z,0.00
2017-09-21T01:36:44.060Z,0.00
2017-09-21T01:37:44.485Z,0.00
2017-09-21T01:38:44.918Z,0.00
2017-09-21T01:39:45.345Z,0.00
2017-09-21T01:40:45.785Z,0.00
2017-09-21T01:41:46.216Z,0.00
2017-09-21T01:42:46.649Z,0.00
2017-09-21T01:43:47.077Z,0.00
2017-09-21T01:44:47.506Z,0.00
2017-09-21T01:45:47.936Z,0.00
2017-09-21T01:46:48.367Z,0.00
2017-09-21T01:47:48.795Z,0.00
2017-09-21T01:48:49.226Z,0.00
2017-09-21T01:49:49.665Z,0.00
2017-09-21T01:50:50.089Z,0.00
2017-09-21T01:51:50.526Z,0.00
2017-09-21T01:52:50.950Z,0.00
2017-09-21T01:53:51.385Z,0.00
2017-09-21T01:54:51.821Z,0.00
2017-09-21T01:55:52.247Z,0.00
2017-09-21T01:56:52.684Z,0.00
2017-09-21T01:57:53.106Z,0.00
2017-09-21T01:58:53.547Z,0.00
2017-09-21T01:59:53.975Z,0.00
2017-09-21T02:00:55.391Z,0.00
2017-09-21T02:01:54.830Z,0.00
2017-09-21T02:02:55.272Z,0.00
2017-09-21T02:03:55.699Z,0.00
2017-09-21T02:04:56.130Z,0.00
2017-09-21T02:05:56.558Z,0.00
2017-09-21T02:06:56.993Z,0.00
2017-09-21T02:07:57.502Z,0.00
2017-09-21T02:08:57.859Z,0.00
2017-09-21T02:09:58.288Z,0.00
2017-09-21T02:10:58.714Z,0.00
2017-09-21T02:11:59.147Z,0.00
2017-09-21T02:12:59.579Z,0.00
2017-09-21T02:14:00.011Z,0.00
2017-09-21T02:15:00.447Z,0.00
2017-09-21T02:16:00.873Z,0.00
2017-09-21T02:17:01.305Z,0.00
2017-09-21T02:18:01.758Z,0.00
2017-09-21T02:19:02.169Z,0.00
2017-09-21T02:20:02.619Z,0.00
2017-09-21T02:21:03.040Z,0.00
2017-09-21T02:22:03.460Z,0.00
2017-09-21T02:23:03.897Z,0.00
2017-09-21T02:24:04.326Z,0.00
2017-09-21T02:25:04.756Z,0.00
2017-09-21T02:26:05.193Z,0.00
2017-09-21T02:27:05.640Z,0.00
2017-09-21T02:28:06.055Z,0.00
2017-09-21T02:29:06.486Z,0.00
2017-09-21T02:30:06.921Z,0.00
2017-09-21T02:31:07.363Z,0.00
2017-09-21T02:32:07.784Z,0.00
2017-09-21T02:33:08.210Z,0.00
2017-09-21T02:34:08.662Z,0.00
2017-09-21T02:35:09.076Z,0.00
2017-09-21T02:36:09.513Z,0.00
2017-09-21T02:37:09.937Z,0.00
2017-09-21T02:38:10.375Z,0.00
2017-09-21T02:39:10.799Z,0.00
2017-09-21T02:40:11.234Z,0.00
2017-09-21T02:41:11.668Z,0.00
2017-09-21T02:42:12.094Z,0.00
2017-09-21T02:43:12.532Z,0.00
2017-09-21T02:44:12.958Z,0.00
2017-09-21T02:45:13.394Z,0.00
2017-09-21T02:46:13.825Z,0.00
2017-09-21T02:47:14.256Z,0.00
2017-09-21T02:48:14.690Z,0.00
2017-09-21T02:49:15.115Z,0.00
2017-09-21T02:50:15.549Z,0.00
2017-09-21T02:51:15.981Z,0.00
2017-09-21T02:52:16.410Z,0.00
2017-09-21T02:53:16.842Z,0.00
2017-09-21T02:54:17.289Z,0.00
2017-09-21T02:55:17.732Z,0.00
2017-09-21T02:56:18.148Z,0.00
2017-09-21T02:57:18.577Z,0.00
2017-09-21T02:58:19.006Z,0.00
2017-09-21T02:59:19.438Z,0.00
2017-09-21T03:00:19.871Z,0.00
2017-09-21T03:01:20.302Z,0.00
2017-09-21T03:02:20.730Z,0.00
2017-09-21T03:03:21.162Z,0.00
2017-09-21T03:04:21.599Z,0.00
2017-09-21T03:05:22.020Z,0.00
2017-09-21T03:06:22.453Z,0.00
2017-09-21T03:07:22.886Z,0.00
2017-09-21T03:08:23.319Z,0.00
2017-09-21T03:09:23.748Z,0.00
2017-09-21T03:10:24.193Z,0.00
2017-09-21T03:11:24.608Z,0.00
2017-09-21T03:12:25.042Z,0.00
2017-09-21T03:13:25.473Z,0.00
2017-09-21T03:14:25.919Z,0.00
2017-09-21T03:15:26.336Z,0.00
2017-09-21T03:16:26.766Z,0.00
2017-09-21T03:17:27.200Z,0.00
2017-09-21T03:18:27.635Z,0.00
2017-09-21T03:19:28.062Z,0.00
2017-09-21T03:20:28.492Z,0.00
2017-09-21T03:21:28.939Z,0.00
2017-09-21T03:22:29.359Z,0.00
2017-09-21T03:23:29.793Z,0.00
2017-09-21T03:24:30.234Z,0.00
2017-09-21T03:25:30.652Z,0.00
2017-09-21T03:26:31.080Z,0.00
2017-09-21T03:27:31.514Z,0.00
2017-09-21T03:28:31.946Z,0.00
2017-09-21T03:29:32.378Z,0.00
2017-09-21T03:30:32.808Z,0.00
2017-09-21T03:31:33.248Z,0.00
2017-09-21T03:32:33.688Z,0.00
2017-09-21T03:33:34.103Z,0.00
2017-09-21T03:34:34.534Z,0.00
2017-09-21T03:35:34.974Z,0.00
2017-09-21T03:36:35.394Z,0.00
2017-09-21T03:37:35.826Z,0.00
2017-09-21T03:38:36.267Z,0.00
2017-09-21T03:39:36.688Z,0.00
2017-09-21T03:40:37.118Z,0.00
2017-09-21T03:41:37.551Z,0.00
2017-09-21T03:42:37.985Z,0.00
2017-09-21T03:43:38.421Z,0.00
2017-09-21T03:44:38.845Z,0.00
2017-09-21T03:45:39.280Z,0.00
2017-09-21T03:46:39.708Z,0.00
2017-09-21T03:47:40.156Z,0.00
2017-09-21T03:48:40.569Z,0.00
2017-09-21T03:49:41.005Z,0.00
2017-09-21T03:50:41.437Z,0.00
2017-09-21T03:51:41.871Z,0.00
2017-09-21T03:52:42.296Z,0.00
2017-09-21T03:53:42.730Z,0.00
2017-09-21T03:54:43.158Z,0.00
2017-09-21T03:55:43.588Z,0.00
2017-09-21T03:56:44.022Z,0.00
2017-09-21T03:57:44.455Z,0.00
2017-09-21T03:58:44.891Z,0.00
2017-09-21T03:59:45.317Z,0.00
2017-09-21T04:00:45.751Z,0.00
2017-09-21T04:01:46.175Z,0.00
2017-09-21T04:02:46.609Z,0.00
2017-09-21T04:03:47.039Z,0.00
2017-09-21T04:04:47.473Z,0.00
2017-09-21T04:05:47.898Z,0.00
2017-09-21T04:06:48.334Z,0.00
2017-09-21T04:07:48.762Z,0.00
2017-09-21T04:08:49.200Z,0.00
2017-09-21T04:09:49.622Z,0.00
2017-09-21T04:10:50.058Z,0.00
2017-09-21T04:11:50.488Z,0.00
2017-09-21T04:12:50.925Z,0.00
2017-09-21T04:13:51.348Z,0.00
2017-09-21T04:14:51.789Z,0.00
2017-09-21T04:15:52.211Z,0.00
2017-09-21T04:16:52.639Z,0.00
2017-09-21T04:17:53.073Z,0.00
2017-09-21T04:18:53.506Z,0.00
2017-09-21T04:19:53.932Z,0.00
2017-09-21T04:20:54.367Z,0.00
2017-09-21T04:21:54.804Z,0.00
2017-09-21T04:22:55.232Z,0.00
2017-09-21T04:23:55.658Z,0.00
2017-09-21T04:24:56.088Z,0.00
2017-09-21T04:25:56.520Z,0.00
2017-09-21T04:26:56.956Z,0.00
2017-09-21T04:27:57.385Z,0.00
2017-09-21T04:28:57.815Z,0.00
2017-09-21T04:29:58.244Z,0.00
2017-09-21T04:30:58.674Z,0.00
2017-09-21T04:31:59.107Z,0.00
2017-09-21T04:32:59.538Z,0.00
2017-09-21T04:33:59.975Z,0.00
2017-09-21T04:35:00.399Z,0.00
2017-09-21T04:36:00.835Z,0.00
2017-09-21T04:37:01.255Z,0.00
2017-09-21T04:38:01.691Z,0.00
2017-09-21T04:39:02.130Z,0.00
2017-09-21T04:40:02.551Z,0.00
2017-09-21T04:41:02.980Z,0.00
2017-09-21T04:42:03.412Z,0.00
2017-09-21T04:43:03.841Z,0.00
2017-09-21T04:44:04.272Z,0.00
2017-09-21T04:45:04.701Z,0.00
2017-09-21T04:46:05.133Z,0.00
2017-09-21T04:47:05.575Z,0.00
2017-09-21T04:48:05.995Z,0.00
2017-09-21T04:49:06.424Z,5.63
2017-09-21T04:50:06.854Z,5.63
2017-09-21T04:51:07.307Z,5.63
2017-09-21T04:52:07.716Z,5.63
2017-09-21T04:53:08.148Z,5.63
2017-09-21T04:54:08.622Z,5.63
2017-09-21T04:55:09.011Z,5.63
2017-09-21T04:56:09.442Z,5.63
2017-09-21T04:57:09.908Z,5.63
2017-09-21T04:58:10.330Z,11.25
2017-09-21T04:59:10.732Z,11.25
2017-09-21T05:00:11.192Z,11.25
2017-09-21T05:01:11.599Z,11.25
2017-09-21T05:02:12.018Z,11.25
2017-09-21T05:03:12.468Z,16.88
2017-09-21T05:04:12.883Z,16.88
2017-09-21T05:05:13.310Z,16.88
2017-09-21T05:06:13.745Z,16.88
2017-09-21T05:07:14.177Z,22.50
2017-09-21T05:08:14.616Z,22.50
2017-09-21T05:09:15.033Z,22.50
2017-09-21T05:10:15.464Z,22.50
2017-09-21T05:11:15.901Z,22.50
2017-09-21T05:12:16.328Z,28.13
2017-09-21T05:13:16.758Z,28.13
2017-09-21T05:14:17.189Z,28.13
2017-09-21T05:15:17.621Z,33.75
2017-09-21T05:16:18.051Z,33.75
2017-09-21T05:17:18.479Z,33.75
2017-09-21T05:18:18.909Z,33.75
2017-09-21T05:19:19.339Z,33.75
2017-09-21T05:20:19.772Z,39.38
2017-09-21T05:21:20.198Z,39.38
2017-09-21T05:22:20.635Z,45.00
2017-09-21T05:23:21.063Z,45.00
2017-09-21T05:24:21.501Z,50.63
2017-09-21T05:25:21.928Z,56.25
2017-09-21T05:26:22.352Z,61.88
2017-09-21T05:27:22.784Z,67.50
2017-09-21T05:28:23.214Z,67.50
2017-09-21T05:29:23.654Z,67.50
2017-09-21T05:30:24.092Z,67.50
2017-09-21T05:31:24.509Z,67.50
2017-09-21T05:32:24.937Z,73.13
2017-09-21T05:33:25.373Z,73.13
2017-09-21T05:34:25.800Z,78.75
2017-09-21T05:35:26.266Z,78.75
2017-09-21T05:36:26.672Z,78.75
2017-09-21T05:37:27.093Z,78.75
2017-09-21T05:38:27.522Z,84.38
2017-09-21T05:39:27.951Z,84.38
2017-09-21T05:40:28.412Z,90.00
2017-09-21T05:41:28.839Z,95.63
2017-09-21T05:42:29.246Z,95.63
2017-09-21T05:43:29.678Z,101.25
2017-09-21T05:44:30.107Z,106.88
2017-09-21T05:45:30.650Z,112.50
2017-09-21T05:46:30.961Z,112.50
2017-09-21T05:47:31.405Z,118.13
2017-09-21T05:48:32.223Z,118.13
2017-09-21T05:49:32.262Z,118.13
2017-09-21T05:50:32.968Z,118.13
2017-09-21T05:51:33.127Z,118.13
2017-09-21T05:52:33.591Z,118.13
2017-09-21T05:53:33.995Z,118.13
2017-09-21T05:54:34.441Z,118.13
2017-09-21T05:55:34.886Z,123.75
2017-09-21T05:56:35.454Z,112.50
2017-09-21T05:57:35.727Z,106.88
2017-09-21T05:58:36.177Z,106.88
2017-09-21T05:59:36.611Z,101.25
2017-09-21T06:00:37.022Z,95.63
2017-09-21T06:03:38.949Z,95.63
2017-09-21T06:04:38.675Z,101.25
2017-09-21T06:06:34.229Z,106.88
2017-09-21T06:07:34.660Z,112.50
2017-09-21T06:09:29.214Z,118.13
2017-09-21T06:10:29.649Z,112.50
2017-09-21T06:12:24.203Z,118.13
2017-09-21T06:13:24.640Z,123.75
2017-09-21T06:15:19.199Z,146.25
2017-09-21T06:16:19.631Z,168.75
2017-09-21T06:18:14.193Z,208.13
2017-09-21T06:19:14.641Z,225.00
2017-09-21T06:21:09.191Z,253.13
2017-09-21T06:22:09.628Z,258.75
2017-09-21T06:24:04.182Z,264.38
2017-09-21T06:25:04.620Z,258.75
2017-09-21T06:26:59.179Z,264.38
2017-09-21T06:27:59.615Z,264.38
2017-09-21T06:29:54.171Z,258.75
2017-09-21T06:30:54.609Z,253.13
2017-09-21T06:32:49.170Z,247.50
2017-09-21T06:33:49.608Z,247.50
2017-09-21T06:35:44.173Z,253.13
2017-09-21T06:36:44.612Z,253.13
2017-09-21T06:38:39.171Z,258.75
2017-09-21T06:39:39.609Z,247.50
2017-09-21T06:41:34.172Z,253.13
2017-09-21T06:42:34.612Z,247.50
2017-09-21T06:43:35.042Z,241.88
2017-09-21T06:44:35.474Z,247.50
2017-09-21T06:45:35.908Z,241.88
2017-09-21T06:46:36.345Z,241.88
2017-09-21T06:47:36.774Z,247.50
2017-09-21T06:48:37.212Z,247.50
2017-09-21T06:49:37.641Z,247.50
2017-09-21T06:50:38.072Z,253.13
2017-09-21T06:51:41.434Z,253.13
2017-09-21T06:52:38.943Z,253.13
2017-09-21T06:53:39.374Z,253.13
2017-09-21T06:54:39.809Z,253.13
2017-09-21T06:55:40.240Z,258.75
2017-09-21T06:56:40.671Z,264.38
2017-09-21T06:57:41.109Z,275.63
2017-09-21T06:58:41.536Z,286.88
2017-09-21T06:59:41.973Z,286.88
2017-09-21T07:00:42.404Z,264.38
2017-09-21T07:01:42.839Z,247.50
2017-09-21T07:02:43.268Z,225.00
2017-09-21T07:03:43.701Z,213.75
2017-09-21T07:04:44.134Z,219.38
2017-09-21T07:05:44.568Z,230.63
2017-09-21T07:06:45.001Z,270.00
2017-09-21T07:07:45.433Z,286.88
2017-09-21T07:08:45.874Z,286.88
2017-09-21T07:09:46.304Z,281.25
2017-09-21T07:10:46.734Z,286.88
2017-09-21T07:11:47.164Z,292.50
2017-09-21T07:12:47.598Z,298.13
2017-09-21T07:13:48.033Z,303.75
2017-09-21T07:14:48.465Z,309.38
2017-09-21T07:15:48.898Z,315.00
2017-09-21T07:16:49.329Z,320.63
2017-09-21T07:17:49.762Z,331.88
2017-09-21T07:18:50.201Z,343.13
2017-09-21T07:19:50.627Z,348.75
2017-09-21T07:20:51.103Z,348.75
2017-09-21T07:21:51.498Z,376.88
2017-09-21T07:22:51.936Z,433.13
2017-09-21T07:23:52.364Z,478.13
2017-09-21T07:24:52.796Z,528.75
2017-09-21T07:25:53.232Z,585.00
2017-09-21T07:26:53.673Z,630.00
2017-09-21T07:27:54.095Z,652.50
2017-09-21T07:28:54.579Z,646.88
2017-09-21T07:29:54.965Z,646.88
2017-09-21T07:30:55.400Z,691.88
2017-09-21T07:31:55.833Z,742.50
2017-09-21T07:32:56.272Z,759.38
2017-09-21T07:33:56.706Z,720.00
2017-09-21T07:34:57.142Z,691.88
2017-09-21T07:35:57.578Z,675.00
2017-09-21T07:36:58.015Z,635.63
2017-09-21T07:37:58.450Z,562.50
2017-09-21T07:38:58.891Z,556.88
2017-09-21T07:39:59.326Z,562.50
2017-09-21T07:40:59.764Z,562.50
2017-09-21T07:42:00.198Z,568.13
2017-09-21T07:43:00.636Z,573.75
2017-09-21T07:44:01.075Z,556.88
2017-09-21T07:45:01.723Z,534.38
2017-09-21T07:46:01.939Z,511.88
2017-09-21T07:47:02.390Z,523.13
2017-09-21T07:48:02.827Z,562.50
2017-09-21T07:49:03.262Z,725.63
2017-09-21T07:50:03.701Z,776.25
2017-09-21T07:51:04.137Z,871.88
2017-09-21T07:52:04.576Z,978.75
2017-09-21T07:53:05.017Z,714.38
2017-09-21T07:54:05.452Z,866.25
2017-09-21T07:55:05.888Z,838.13
2017-09-21T07:56:06.332Z,945.00
2017-09-21T07:57:06.771Z,1428.75
2017-09-21T07:58:07.209Z,956.25
2017-09-21T07:59:07.647Z,1355.63
2017-09-21T08:00:08.091Z,1400.63
2017-09-21T08:01:08.527Z,1192.50
2017-09-21T08:02:08.968Z,1653.75
2017-09-21T08:03:09.408Z,1378.13
2017-09-21T08:04:09.859Z,2092.50
2017-09-21T08:05:10.295Z,2250.00
2017-09-21T08:06:10.737Z,2199.38
2017-09-21T08:07:11.181Z,1693.13
2017-09-21T08:08:11.624Z,1496.25
2017-09-21T08:09:12.069Z,1434.38
2017-09-21T08:10:12.516Z,1096.88
2017-09-21T08:11:12.961Z,1316.25
2017-09-21T08:12:13.409Z,1147.50
2017-09-21T08:13:13.861Z,984.38
2017-09-21T08:14:14.301Z,1012.50
2017-09-21T08:15:14.808Z,1068.75
2017-09-21T08:16:15.195Z,1698.75
2017-09-21T08:17:15.642Z,2379.38
2017-09-21T08:18:16.091Z,1411.88
2017-09-21T08:19:16.593Z,1456.88
2017-09-21T08:20:16.984Z,905.63
2017-09-21T08:21:17.430Z,680.63
2017-09-21T08:22:17.876Z,708.75
2017-09-21T08:23:18.325Z,736.88
2017-09-21T08:24:18.772Z,686.25
2017-09-21T08:25:19.221Z,624.38
2017-09-21T08:26:19.665Z,517.50
2017-09-21T08:27:20.116Z,506.25
2017-09-21T08:28:20.564Z,545.63
2017-09-21T08:29:21.008Z,590.63
2017-09-21T08:30:21.457Z,663.75
2017-09-21T08:31:21.904Z,978.75
2017-09-21T08:32:22.374Z,804.38
2017-09-21T08:33:22.793Z,1153.13
2017-09-21T08:34:23.239Z,1051.88
2017-09-21T08:35:23.683Z,736.88
2017-09-21T08:36:24.127Z,781.88
2017-09-21T08:37:24.574Z,686.25
2017-09-21T08:38:25.015Z,658.13
2017-09-21T08:39:25.460Z,652.50
2017-09-21T08:40:25.908Z,596.25
2017-09-21T08:41:26.354Z,540.00
2017-09-21T08:42:26.795Z,585.00
2017-09-21T08:43:27.246Z,579.38
2017-09-21T08:44:27.687Z,551.25
2017-09-21T08:45:28.130Z,573.75
2017-09-21T08:46:28.576Z,669.38
2017-09-21T08:47:29.013Z,793.13
2017-09-21T08:48:29.459Z,871.88
2017-09-21T08:49:29.900Z,2666.25
2017-09-21T08:50:30.367Z,2441.25
2017-09-21T08:51:30.788Z,1125.00
2017-09-21T08:52:31.235Z,1558.13
2017-09-21T08:53:31.680Z,1783.13
2017-09-21T08:54:32.121Z,607.50
2017-09-21T08:55:32.575Z,528.75
2017-09-21T08:56:33.015Z,466.88
2017-09-21T08:57:33.461Z,753.75
2017-09-21T08:58:33.906Z,478.13
2017-09-21T08:59:34.362Z,517.50
2017-09-21T09:00:34.797Z,793.13
2017-09-21T09:01:35.246Z,2565.00
2017-09-21T09:02:35.691Z,2154.38
2017-09-21T09:03:36.136Z,2295.00
2017-09-21T09:04:36.579Z,1906.88
2017-09-21T09:05:37.027Z,2030.63
2017-09-21T09:06:37.476Z,2064.38
2017-09-21T09:07:37.920Z,2250.00
2017-09-21T09:08:38.374Z,2452.50
2017-09-21T09:09:38.821Z,2165.63
2017-09-21T09:10:39.272Z,1260.00
2017-09-21T09:11:39.726Z,759.38
2017-09-21T09:12:40.176Z,2075.63
2017-09-21T09:13:40.623Z,1777.50
2017-09-21T09:14:41.074Z,2025.00
2017-09-21T09:15:41.540Z,2565.00
2017-09-21T09:16:41.983Z,2244.38
2017-09-21T09:17:42.430Z,2278.13
2017-09-21T09:18:42.882Z,2008.13
2017-09-21T09:19:43.335Z,916.88
2017-09-21T09:20:43.793Z,1243.13
2017-09-21T09:21:44.243Z,973.13
2017-09-21T09:22:44.699Z,826.88
2017-09-21T09:23:45.166Z,826.88
2017-09-21T09:24:45.601Z,759.38
2017-09-21T09:25:46.053Z,731.25
2017-09-21T09:26:46.506Z,1400.63
2017-09-21T09:27:46.955Z,1029.38
2017-09-21T09:28:47.404Z,511.88
2017-09-21T09:29:47.853Z,528.75
2017-09-21T09:30:48.306Z,466.88
2017-09-21T09:31:48.759Z,461.25
2017-09-21T09:32:49.224Z,489.38
2017-09-21T09:33:49.657Z,523.13
2017-09-21T09:34:50.115Z,590.63
2017-09-21T09:35:50.569Z,691.88
2017-09-21T09:36:50.997Z,804.38
2017-09-21T09:37:51.446Z,1355.63
2017-09-21T09:38:51.911Z,978.75
2017-09-21T09:39:52.350Z,1119.38
2017-09-21T09:40:52.788Z,770.63
2017-09-21T09:41:53.230Z,585.00
2017-09-21T09:42:53.679Z,478.13
2017-09-21T09:43:54.126Z,410.63
2017-09-21T09:44:54.573Z,348.75
2017-09-21T09:45:55.014Z,348.75
2017-09-21T09:46:55.461Z,416.25
2017-09-21T09:47:55.917Z,489.38
2017-09-21T09:48:56.350Z,579.38
2017-09-21T09:49:56.794Z,658.13
2017-09-21T09:50:57.239Z,815.63
2017-09-21T09:51:57.729Z,866.25
2017-09-21T09:52:58.146Z,843.75
2017-09-21T09:53:58.570Z,838.13
2017-09-21T09:54:59.014Z,911.25
2017-09-21T09:55:59.484Z,1136.25
2017-09-21T09:56:59.899Z,1321.88
2017-09-21T09:58:00.362Z,1693.13
2017-09-21T09:59:00.789Z,1957.50
2017-09-21T10:00:01.228Z,3262.50
2017-09-21T10:01:01.674Z,1800.00
2017-09-21T10:02:02.118Z,1057.50
2017-09-21T10:03:02.576Z,950.63
2017-09-21T10:04:03.013Z,1119.38
2017-09-21T10:05:03.478Z,978.75
2017-09-21T10:06:03.904Z,765.00
2017-09-21T10:07:04.350Z,720.00
2017-09-21T10:08:04.824Z,697.50
2017-09-21T10:09:05.248Z,630.00
2017-09-21T10:10:05.694Z,573.75
2017-09-21T10:11:06.145Z,528.75
2017-09-21T10:12:06.590Z,540.00
2017-09-21T10:13:07.032Z,556.88
2017-09-21T10:14:07.480Z,601.88
2017-09-21T10:15:07.921Z,708.75
2017-09-21T10:16:08.371Z,798.75
2017-09-21T10:17:08.815Z,866.25
2017-09-21T10:18:09.264Z,973.13
2017-09-21T10:19:09.702Z,967.50
2017-09-21T10:20:10.149Z,1108.13
2017-09-21T10:21:10.594Z,1040.63
2017-09-21T10:22:11.045Z,1603.13
2017-09-21T10:23:11.487Z,1749.38
2017-09-21T10:24:11.935Z,2745.00
2017-09-21T10:25:12.381Z,3009.38
2017-09-21T10:26:12.838Z,3251.25
2017-09-21T10:27:13.281Z,3318.75
2017-09-21T10:28:13.733Z,2570.63
2017-09-21T10:29:14.187Z,1333.13
2017-09-21T10:30:14.641Z,995.63
2017-09-21T10:31:15.096Z,866.25
2017-09-21T10:32:15.544Z,748.13
2017-09-21T10:33:15.996Z,573.75
2017-09-21T10:34:16.450Z,506.25
2017-09-21T10:35:16.904Z,444.38
2017-09-21T10:36:17.359Z,421.88
2017-09-21T10:37:17.811Z,405.00
2017-09-21T10:38:18.268Z,450.00
2017-09-21T10:39:18.719Z,517.50
2017-09-21T10:40:19.168Z,585.00
2017-09-21T10:41:19.621Z,630.00
2017-09-21T10:42:20.078Z,624.38
2017-09-21T10:43:20.519Z,618.75
2017-09-21T10:44:20.968Z,596.25
2017-09-21T10:45:21.422Z,618.75
2017-09-21T10:46:21.867Z,635.63
2017-09-21T10:47:22.319Z,630.00
2017-09-21T10:48:22.764Z,607.50
2017-09-21T10:49:23.212Z,573.75
2017-09-21T10:50:23.663Z,551.25
2017-09-21T10:51:24.106Z,624.38
2017-09-21T10:52:24.556Z,523.13
2017-09-21T10:53:25.007Z,461.25
2017-09-21T10:54:25.459Z,444.38
2017-09-21T10:55:25.890Z,450.00
2017-09-21T10:56:26.341Z,455.63
2017-09-21T10:57:26.788Z,450.00
2017-09-21T10:58:27.229Z,438.75
2017-09-21T10:59:27.680Z,444.38
2017-09-21T11:00:28.121Z,450.00
2017-09-21T11:01:28.567Z,450.00
2017-09-21T11:02:29.009Z,433.13
2017-09-21T11:03:29.452Z,416.25
2017-09-21T11:04:29.897Z,416.25
2017-09-21T11:05:30.370Z,433.13
2017-09-21T11:06:30.783Z,433.13
2017-09-21T11:07:31.245Z,444.38
2017-09-21T11:08:31.689Z,444.38
2017-09-21T11:09:32.116Z,466.88
2017-09-21T11:10:32.561Z,472.50
2017-09-21T11:11:33.006Z,489.38
2017-09-21T11:12:33.455Z,511.88
2017-09-21T11:13:33.890Z,540.00
2017-09-21T11:14:34.338Z,568.13
2017-09-21T11:15:34.777Z,585.00
2017-09-21T11:16:35.262Z,613.13
2017-09-21T11:17:35.663Z,686.25
2017-09-21T11:18:36.112Z,753.75
2017-09-21T11:19:36.550Z,821.25
2017-09-21T11:20:36.994Z,815.63
2017-09-21T11:21:37.436Z,1029.38
2017-09-21T11:22:37.895Z,1046.25
2017-09-21T11:23:38.330Z,1068.75
2017-09-21T11:24:38.767Z,736.88
2017-09-21T11:25:39.212Z,798.75
2017-09-21T11:26:39.663Z,821.25
2017-09-21T11:27:40.098Z,635.63
2017-09-21T11:28:40.562Z,585.00
2017-09-21T11:29:40.988Z,551.25
2017-09-21T11:30:41.444Z,511.88
2017-09-21T11:31:41.877Z,534.38
2017-09-21T11:32:42.327Z,579.38
2017-09-21T11:33:42.767Z,534.38
2017-09-21T11:34:43.235Z,511.88
2017-09-21T11:35:43.656Z,483.75
2017-09-21T11:36:44.096Z,455.63
2017-09-21T11:37:44.543Z,427.50
2017-09-21T11:38:44.988Z,416.25
2017-09-21T11:39:45.431Z,399.38
2017-09-21T11:40:45.879Z,393.75
2017-09-21T11:41:46.320Z,376.88
2017-09-21T11:42:46.760Z,376.88
2017-09-21T11:43:47.201Z,382.50
2017-09-21T11:44:47.645Z,393.75
2017-09-21T11:45:48.091Z,405.00
2017-09-21T11:46:48.536Z,416.25
2017-09-21T11:47:48.978Z,438.75
2017-09-21T11:48:49.430Z,478.13
2017-09-21T11:49:49.861Z,511.88
2017-09-21T11:50:50.303Z,556.88
2017-09-21T11:51:50.748Z,607.50
2017-09-21T11:52:51.194Z,641.25
2017-09-21T11:53:51.628Z,658.13
2017-09-21T11:54:52.068Z,658.13
2017-09-21T11:55:52.518Z,663.75
2017-09-21T11:56:52.962Z,652.50
2017-09-21T11:57:53.395Z,618.75
2017-09-21T11:58:53.840Z,607.50
2017-09-21T11:59:54.293Z,568.13
2017-09-21T12:00:54.730Z,540.00
2017-09-21T12:01:55.206Z,511.88
2017-09-21T12:02:55.614Z,478.13
2017-09-21T12:04:56.519Z,393.75
2017-09-21T12:05:56.963Z,371.25
2017-09-21T12:06:57.392Z,360.00
2017-09-21T12:07:57.837Z,337.50
2017-09-21T12:08:58.298Z,303.75
2017-09-21T12:09:58.720Z,264.38
2017-09-21T12:11:20.335Z,230.63
2017-09-21T12:11:59.615Z,196.88
2017-09-21T12:13:00.066Z,163.13
2017-09-21T12:14:00.486Z,140.63
2017-09-21T12:15:00.924Z,118.13
2017-09-21T12:16:01.364Z,101.25
2017-09-21T12:17:22.978Z,84.38
2017-09-21T12:18:02.246Z,78.75
2017-09-21T12:19:02.693Z,73.13
2017-09-21T12:20:03.161Z,61.88
2017-09-21T12:21:03.597Z,56.25
2017-09-21T12:22:04.028Z,50.63
2017-09-21T12:23:25.632Z,50.63
2017-09-21T12:24:04.909Z,50.63
2017-09-21T12:25:05.337Z,50.63
2017-09-21T12:26:05.785Z,50.63
2017-09-21T12:27:06.210Z,50.63
2017-09-21T12:28:06.678Z,50.63
2017-09-21T12:29:28.256Z,50.63
2017-09-21T12:30:07.579Z,50.63
2017-09-21T12:31:07.980Z,50.63
2017-09-21T12:32:08.412Z,50.63
2017-09-21T12:33:08.836Z,50.63
2017-09-21T12:34:09.275Z,50.63
2017-09-21T12:35:30.874Z,50.63
2017-09-21T12:36:10.184Z,50.63
2017-09-21T12:37:10.587Z,56.25
2017-09-21T12:38:11.020Z,56.25
2017-09-21T12:39:11.463Z,56.25
2017-09-21T12:40:11.900Z,56.25
2017-09-21T12:41:33.498Z,56.25
2017-09-21T12:42:12.767Z,56.25
2017-09-21T12:43:13.234Z,56.25
2017-09-21T12:44:13.651Z,61.88
2017-09-21T12:45:14.089Z,61.88
2017-09-21T12:46:14.519Z,61.88
2017-09-21T12:47:36.117Z,61.88
2017-09-21T12:48:15.388Z,61.88
2017-09-21T12:49:15.823Z,61.88
2017-09-21T12:50:16.269Z,61.88
2017-09-21T12:51:16.716Z,67.50
2017-09-21T12:52:17.145Z,67.50
2017-09-21T12:53:38.741Z,67.50
2017-09-21T12:54:18.002Z,67.50
2017-09-21T12:55:18.458Z,67.50
2017-09-21T12:56:18.880Z,67.50
2017-09-21T12:57:19.318Z,67.50
2017-09-21T12:58:19.754Z,67.50
2017-09-21T12:59:41.351Z,67.50
2017-09-21T13:00:20.647Z,73.13
2017-09-21T13:01:21.079Z,78.75
2017-09-21T13:02:21.502Z,78.75
2017-09-21T13:03:21.929Z,84.38
2017-09-21T13:04:22.464Z,84.38
2017-09-21T13:05:44.013Z,90.00
2017-09-21T13:06:23.281Z,95.63
2017-09-21T13:07:23.759Z,101.25